Time;durP1;ratioP1;P1;durP2;ratioP2;P2;SDS_P1;SDS_P2;PMS_P1;PMS_P2;Temp;Humidity;BMP_temperature;BMP_pressure;BME280_temperature;BME280_humidity;BME280_pressure;Samples;Min_cycle;Max_cycle;Signal;HPM_P1;HPM_P2
2021/04/16 00:01:00;;;;;;;18.25;6.95;;;;;;;2.90;86.34;101223.87;1662495;85;25901;-67
2021/04/16 00:03:29;;;;;;;17.25;4.62;;;;;;;2.91;86.33;101229.17;1670069;82;26041;-67
2021/04/16 00:05:57;;;;;;;15.80;5.17;;;;;;;2.90;86.34;101224.76;1660138;83;25964;-67
2021/04/16 00:08:32;;;;;;;12.13;5.22;;;;;;;2.90;86.36;101226.08;1668891;82;26032;-67
2021/04/16 00:11:11;;;;;;;17.50;5.28;;;;;;;2.89;86.31;101232.27;1656924;83;26241;-67
2021/04/16 00:13:43;;;;;;;11.48;4.75;;;;;;;2.91;86.37;101226.52;1656542;84;26885;-67
2021/04/16 00:16:17;;;;;;;;;;;;;;;2.91;86.35;101229.61;1669921;83;25931;-67
2021/04/16 00:18:45;;;;;;;18.15;4.85;;;;;;;2.93;86.38;101219.90;1641565;85;28154;-67
2021/04/16 00:21:14;;;;;;;11.60;4.97;;;;;;;2.90;86.40;101229.17;1640832;83;25935;-67
2021/04/16 00:23:42;;;;;;;15.03;5.30;;;;;;;2.88;86.36;101224.33;1649817;85;26210;-67
2021/04/16 00:26:12;;;;;;;15.20;6.35;;;;;;;2.87;86.35;101230.50;1649815;84;26510;-67
2021/04/16 00:28:43;;;;;;;13.20;5.35;;;;;;;2.89;86.36;101228.73;1649731;84;26096;-67
2021/04/16 00:31:16;;;;;;;9.43;4.60;;;;;;;2.90;86.34;101226.08;1685760;83;26037;-66
2021/04/16 00:33:45;;;;;;;12.28;4.75;;;;;;;2.90;86.40;101216.81;1655321;85;27564;-67
2021/04/16 00:36:14;;;;;;;15.20;5.28;;;;;;;2.87;86.36;101220.80;1655671;84;26390;-67
2021/04/16 00:38:42;;;;;;;15.48;4.83;;;;;;;2.87;86.33;101217.27;1668930;84;25860;-67
2021/04/16 00:41:15;;;;;;;13.58;4.55;;;;;;;2.87;86.34;101211.97;1649464;84;26379;-67
2021/04/16 00:43:44;;;;;;;14.68;5.20;;;;;;;2.85;86.35;101213.74;1654050;84;26378;-67
2021/04/16 00:46:20;;;;;;;17.37;5.12;;;;;;;2.83;86.36;101212.87;1676950;83;28139;-67
2021/04/16 00:48:56;;;;;;;13.05;4.72;;;;;;;2.83;86.37;101218.16;1675095;83;25738;-67
2021/04/16 00:51:40;;;;;;;13.05;5.08;;;;;;;2.83;86.36;101215.07;1658986;83;25848;-67
2021/04/16 00:54:16;;;;;;;15.18;4.67;;;;;;;2.82;86.37;101220.37;1647597;84;25802;-66
2021/04/16 00:56:46;;;;;;;9.60;3.92;;;;;;;2.81;86.35;101222.13;1657875;84;25921;-66
2021/04/16 00:59:16;;;;;;;13.62;3.95;;;;;;;2.82;86.33;101218.60;1670197;83;26398;-67
2021/04/16 01:01:44;;;;;;;18.67;5.93;;;;;;;2.82;86.32;101226.55;1665545;84;25928;-67
2021/04/16 01:04:12;;;;;;;15.80;5.85;;;;;;;2.83;86.37;101217.72;1651413;83;25868;-67
2021/04/16 01:06:40;;;;;;;16.02;5.42;;;;;;;2.82;86.33;101226.55;1651409;83;25864;-67
2021/04/16 01:09:10;;;;;;;9.65;4.03;;;;;;;2.82;86.35;101217.28;1672382;83;53006;-68
2021/04/16 01:11:38;;;;;;;16.30;5.35;;;;;;;2.83;86.36;101215.07;1658397;84;28446;-66
2021/04/16 01:14:10;;;;;;;23.80;5.42;;;;;;;2.83;86.33;101220.36;1648939;83;25958;-67
2021/04/16 01:16:39;;;;;;;;;;;;;;;2.82;86.29;101215.08;1645925;86;25934;-67
2021/04/16 01:19:31;;;;;;;13.03;5.08;;;;;;;2.82;86.28;101217.28;1662651;83;26041;-67
2021/04/16 01:22:21;;;;;;;14.55;5.12;;;;;;;2.80;86.31;101212.43;1669183;84;26065;-67
2021/04/16 01:24:49;;;;;;;16.67;6.45;;;;;;;2.81;86.29;101215.95;1665955;84;27977;-67
2021/04/16 01:27:17;;;;;;;14.33;5.12;;;;;;;2.78;86.28;101212.87;1650680;83;26242;-67
2021/04/16 01:29:46;;;;;;;16.20;6.33;;;;;;;2.78;86.28;101215.52;1632297;84;25909;-67
2021/04/16 01:32:48;;;;;;;17.87;6.12;;;;;;;2.77;86.30;101209.79;1650408;84;25952;-67
2021/04/16 01:35:21;;;;;;;17.42;5.45;;;;;;;2.79;86.27;101209.78;1685610;82;25857;-67
2021/04/16 01:37:51;;;;;;;11.10;5.20;;;;;;;2.76;86.29;101213.32;1693499;82;27581;-66
2021/04/16 01:40:22;;;;;;;11.83;5.33;;;;;;;2.76;86.26;101215.97;1678887;82;25864;-67
2021/04/16 01:42:52;;;;;;;16.40;5.95;;;;;;;2.76;86.28;101218.62;1693402;81;25853;-67
2021/04/16 01:45:25;;;;;;;13.38;4.65;;;;;;;2.74;86.28;101212.89;1692054;81;27001;-67
2021/04/16 01:47:57;;;;;;;15.10;5.15;;;;;;;2.73;86.29;101215.98;1694673;82;25810;-67
2021/04/16 01:50:32;;;;;;;9.93;4.78;;;;;;;2.73;86.33;101218.62;1693003;81;26467;-66
2021/04/16 01:53:02;;;;;;;8.75;4.90;;;;;;;2.73;86.33;101216.42;1711105;81;26291;-66
2021/04/16 01:55:31;;;;;;;14.33;4.75;;;;;;;2.71;86.31;101215.09;1696657;81;25546;-67
2021/04/16 01:57:59;;;;;;;12.30;5.45;;;;;;;2.70;86.28;101208.48;1692627;82;26123;-67
2021/04/16 02:00:33;;;;;;;13.53;5.30;;;;;;;2.70;86.32;101209.37;1696869;81;25792;-66
2021/04/16 02:03:02;;;;;;;14.83;5.08;;;;;;;2.70;86.37;101210.69;1681413;83;27440;-67
2021/04/16 02:05:31;;;;;;;15.28;4.95;;;;;;;2.70;86.36;101214.66;1672395;82;25879;-67
2021/04/16 02:08:00;;;;;;;15.90;5.92;;;;;;;2.69;86.34;101210.25;1668735;83;26237;-67
2021/04/16 02:10:28;;;;;;;13.40;5.00;;;;;;;2.70;86.35;101202.75;1676704;83;26184;-67
2021/04/16 02:12:56;;;;;;;18.02;5.55;;;;;;;2.71;86.36;101212.45;1707451;81;26775;-67
2021/04/16 02:15:25;;;;;;;18.35;6.17;;;;;;;2.68;86.35;101208.48;1698043;81;27984;-67
2021/04/16 02:17:53;;;;;;;11.38;4.75;;;;;;;2.69;86.39;101202.31;1700653;83;25913;-67
2021/04/16 02:20:24;;;;;;;15.72;5.75;;;;;;;2.69;86.38;101203.63;1691291;81;25893;-67
2021/04/16 02:22:53;;;;;;;17.42;5.28;;;;;;;2.69;86.39;101212.90;1699768;81;26110;-67
2021/04/16 02:25:21;;;;;;;11.22;4.45;;;;;;;2.69;86.43;101212.90;1701040;81;26501;-67
2021/04/16 02:27:50;;;;;;;13.08;5.30;;;;;;;2.68;86.40;101204.96;1691362;81;26814;-67
2021/04/16 02:30:26;;;;;;;13.83;5.17;;;;;;;2.65;86.40;101215.11;1672279;82;25937;-67
2021/04/16 02:32:54;;;;;;;15.85;5.05;;;;;;;2.64;86.52;101209.38;1686050;82;25854;-67
2021/04/16 02:35:25;;;;;;;15.55;5.90;;;;;;;2.61;86.49;101207.63;1706013;81;26378;-66
2021/04/16 02:37:54;;;;;;;13.45;5.45;;;;;;;2.61;86.47;101208.06;1690813;81;25799;-66
2021/04/16 02:40:25;;;;;;;18.30;5.47;;;;;;;2.63;86.52;101206.30;1690493;81;27812;-67
2021/04/16 02:42:54;;;;;;;21.33;6.53;;;;;;;2.64;86.47;101209.82;1685137;82;26790;-66
2021/04/16 02:45:25;;;;;;;14.63;6.20;;;;;;;2.65;86.50;101207.17;1699467;81;25870;-67
2021/04/16 02:47:53;;;;;;;14.75;6.95;;;;;;;2.64;86.48;101204.09;1691556;82;26403;-67
2021/04/16 02:50:28;;;;;;;19.07;7.92;;;;;;;2.65;86.53;101201.88;1692124;81;25957;-66
2021/04/16 02:52:56;;;;;;;19.32;7.50;;;;;;;2.66;86.49;101203.64;1692842;83;25829;-66
2021/04/16 02:55:25;;;;;;;17.77;6.45;;;;;;;2.67;86.48;101198.79;1692189;81;26040;-67
2021/04/16 02:57:53;;;;;;;22.60;7.72;;;;;;;2.65;86.53;101205.84;1704568;83;25858;-66
2021/04/16 03:00:26;;;;;;;22.45;7.87;;;;;;;2.64;86.50;101203.20;1688658;81;26853;-67
2021/04/16 03:02:55;;;;;;;15.93;7.53;;;;;;;2.65;86.54;101208.94;1697490;81;25841;-66
2021/04/16 03:05:24;;;;;;;22.00;7.40;;;;;;;2.63;86.52;101195.70;1681852;83;28329;-66
2021/04/16 03:07:52;;;;;;;21.23;7.72;;;;;;;2.66;86.61;101204.97;1684600;83;26581;-66
2021/04/16 03:10:30;;;;;;;22.30;8.58;;;;;;;2.66;86.53;101208.94;1687052;82;25939;-67
2021/04/16 03:12:59;;;;;;;16.52;7.83;;;;;;;2.64;86.52;101209.38;1676944;82;26249;-66
2021/04/16 03:15:29;;;;;;;17.75;9.20;;;;;;;2.63;86.58;101210.27;1664704;83;31793;-66
2021/04/16 03:17:58;;;;;;;25.12;9.53;;;;;;;2.64;86.54;101212.47;1669148;83;25944;-66
2021/04/16 03:20:26;;;;;;;14.07;8.20;;;;;;;2.63;86.54;101209.38;1702104;81;26005;-66
2021/04/16 03:22:53;;;;;;;27.02;9.33;;;;;;;2.64;86.56;101207.17;1688791;81;25890;-66
2021/04/16 03:25:21;;;;;;;21.70;9.55;;;;;;;2.62;86.58;101211.15;1693815;81;26129;-66
2021/04/16 03:27:51;;;;;;;24.82;9.23;;;;;;;2.63;86.55;101210.27;1690622;81;25803;-66
2021/04/16 03:30:23;;;;;;;25.97;11.00;;;;;;;2.64;86.59;101206.73;1694171;81;28666;-66
2021/04/16 03:32:52;;;;;;;14.43;7.67;;;;;;;2.62;86.56;101213.80;1669418;83;25880;-67
2021/04/16 03:35:21;;;;;;;17.25;8.35;;;;;;;2.61;86.59;101212.03;1687783;82;25816;-66
2021/04/16 03:37:50;;;;;;;26.07;9.55;;;;;;;2.60;86.56;101209.83;1696588;82;26488;-67
2021/04/16 03:40:23;;;;;;;21.75;9.35;;;;;;;2.60;86.57;101213.80;1697164;82;25819;-67
2021/04/16 03:42:51;;;;;;;25.90;8.48;;;;;;;2.61;86.55;101205.41;1710522;82;25821;-66
2021/04/16 03:45:21;;;;;;;23.15;9.03;;;;;;;2.61;86.55;101214.67;1711619;81;26504;-67
2021/04/16 03:47:51;;;;;;;15.28;7.05;;;;;;;2.57;86.56;101207.22;1696827;82;26624;-67
2021/04/16 03:50:31;;;;;;;24.98;9.85;;;;;;;2.56;86.59;101204.58;1706136;81;26742;-67
2021/04/16 03:53:00;;;;;;;22.05;8.70;;;;;;;2.56;86.61;101208.11;1697632;83;25887;-67
2021/04/16 03:55:32;;;;;;;16.07;8.03;;;;;;;2.57;86.60;101208.55;1703300;81;27792;-66
2021/04/16 03:58:02;;;;;;;15.32;8.68;;;;;;;2.53;86.59;101206.78;1698492;81;26719;-67
2021/04/16 04:00:36;;;;;;;16.35;7.80;;;;;;;2.53;86.66;101212.52;1711199;81;25855;-67
2021/04/16 04:03:08;;;;;;;19.65;8.23;;;;;;;2.52;86.68;101213.41;1684337;83;26103;-67
2021/04/16 04:05:37;;;;;;;22.82;7.47;;;;;;;2.49;86.70;101212.08;1690534;82;26487;-66
2021/04/16 04:08:06;;;;;;;16.15;8.48;;;;;;;2.51;86.74;101217.81;1688085;83;27284;-67
2021/04/16 04:10:38;;;;;;;18.20;7.17;;;;;;;2.50;86.71;101221.34;1681087;83;26609;-67
2021/04/16 04:13:10;;;;;;;16.62;7.55;;;;;;;2.50;86.71;101212.52;1686751;82;26209;-66
2021/04/16 04:15:39;;;;;;;21.40;8.55;;;;;;;2.52;86.73;101220.02;1686665;82;26008;-66
2021/04/16 04:18:09;;;;;;;17.12;8.13;;;;;;;2.51;86.72;101216.94;1710371;81;25773;-67
2021/04/16 04:20:43;;;;;;;27.00;7.93;;;;;;;2.53;86.70;101221.78;1698127;82;27922;-66
2021/04/16 04:23:11;;;;;;;18.30;7.00;;;;;;;2.54;86.71;101223.55;1695434;81;26751;-66
2021/04/16 04:25:42;;;;;;;17.50;8.13;;;;;;;2.52;86.74;101221.34;1702360;82;25563;-66
2021/04/16 04:28:12;;;;;;;22.00;6.92;;;;;;;2.48;86.71;101220.91;1703917;81;26734;-66
2021/04/16 04:30:43;;;;;;;16.32;8.23;;;;;;;2.47;86.73;101211.20;1700098;81;26454;-67
2021/04/16 04:33:11;;;;;;;18.73;7.85;;;;;;;2.49;86.76;101216.05;1713769;82;27851;-66
2021/04/16 04:35:41;;;;;;;18.42;8.00;;;;;;;2.50;86.79;101216.05;1689183;83;25884;-65
2021/04/16 04:38:12;;;;;;;20.08;7.75;;;;;;;2.47;86.75;101216.50;1698079;81;25914;-66
2021/04/16 04:40:40;;;;;;;27.77;8.08;;;;;;;2.46;86.77;101217.38;1688554;83;26059;-66
2021/04/16 04:43:07;;;;;;;21.15;7.87;;;;;;;2.48;86.83;101220.91;1687552;81;26460;-66
2021/04/16 04:45:35;;;;;;;23.55;7.92;;;;;;;2.49;86.82;101221.34;1692475;83;28571;-66
2021/04/16 04:48:04;;;;;;;16.48;7.15;;;;;;;2.49;86.82;101219.58;1689169;81;25884;-65
2021/04/16 04:50:34;;;;;;;20.08;7.22;;;;;;;2.50;86.86;101224.44;1695773;82;25762;-65
2021/04/16 04:53:01;;;;;;;19.55;7.65;;;;;;;2.48;86.82;101220.91;1692784;81;25832;-66
2021/04/16 04:55:33;;;;;;;22.42;8.75;;;;;;;2.50;86.86;101221.34;1688432;81;26405;-65
2021/04/16 04:58:01;;;;;;;20.02;8.38;;;;;;;2.53;86.87;101220.45;1686887;81;27701;-66
2021/04/16 05:00:31;;;;;;;22.00;7.60;;;;;;;2.49;86.84;101207.67;1688094;81;26080;-68
2021/04/16 05:03:01;;;;;;;23.87;8.28;;;;;;;2.55;86.84;101214.72;1684834;81;26532;-66
2021/04/16 05:05:30;;;;;;;13.98;6.58;;;;;;;2.57;86.84;101216.48;1692403;81;26749;-66
2021/04/16 05:07:58;;;;;;;22.13;8.15;;;;;;;2.55;86.89;101220.02;1694254;83;26431;-66
2021/04/16 05:10:26;;;;;;;19.70;6.78;;;;;;;2.51;86.92;101216.48;1691097;81;28028;-66
2021/04/16 05:12:53;;;;;;;31.17;8.30;;;;;;;2.53;86.95;101214.72;1686018;83;26206;-68
2021/04/16 05:15:21;;;;;;;19.85;6.75;;;;;;;2.54;86.95;101213.84;1690096;81;25849;-66
2021/04/16 05:17:50;;;;;;;23.92;8.33;;;;;;;2.57;86.95;101215.16;1665578;84;25971;-66
2021/04/16 05:20:21;;;;;;;19.35;6.90;;;;;;;2.57;86.88;101215.59;1693756;81;25825;-66
2021/04/16 05:22:48;;;;;;;21.87;7.10;;;;;;;2.59;86.91;101223.09;1696521;81;28514;-66
2021/04/16 05:25:18;;;;;;;22.73;6.83;;;;;;;2.61;86.94;101228.79;1691361;81;25799;-66
2021/04/16 05:27:48;;;;;;;18.75;6.45;;;;;;;2.61;86.92;101218.65;1692852;81;25852;-66
2021/04/16 05:30:18;;;;;;;24.25;6.70;;;;;;;2.64;86.99;101227.02;1686023;81;25940;-66
2021/04/16 05:32:49;;;;;;;20.45;6.12;;;;;;;2.61;86.96;101227.47;1692773;83;27544;-66
2021/04/16 05:35:17;;;;;;;26.12;8.10;;;;;;;2.65;87.00;101220.84;1685629;81;27395;-66
2021/04/16 05:37:48;;;;;;;41.30;8.28;;;;;;;2.65;86.98;101220.41;1694751;81;25799;-66
2021/04/16 05:40:16;;;;;;;60.97;8.83;;;;;;;2.67;86.99;101224.38;1687708;81;25985;-66
2021/04/16 05:42:44;;;;;;;25.00;9.70;;;;;;;2.66;86.95;101221.29;1692943;81;26252;-66
2021/04/16 05:45:16;;;;;;;25.70;7.42;;;;;;;2.69;87.00;101225.25;1687440;81;26321;-66
2021/04/16 05:47:46;;;;;;;24.85;7.50;;;;;;;2.70;87.00;101222.60;1684206;81;28052;-67
2021/04/16 05:50:17;;;;;;;25.82;7.53;;;;;;;2.72;87.03;101227.45;1692047;81;26038;-67
2021/04/16 05:52:45;;;;;;;15.57;6.23;;;;;;;2.73;87.01;101226.56;1690291;81;26128;-66
2021/04/16 05:55:13;;;;;;;23.85;6.42;;;;;;;2.75;87.05;101230.53;1692481;81;25844;-67
2021/04/16 05:57:41;;;;;;;37.25;8.80;;;;;;;2.75;87.05;101222.59;1686302;82;25833;-67
2021/04/16 06:00:13;;;;;;;21.23;7.50;;;;;;;2.79;87.08;101227.88;1692451;81;27480;-67
2021/04/16 06:02:42;;;;;;;36.83;8.83;;;;;;;2.81;87.00;101225.22;1691220;83;26010;-68
2021/04/16 06:05:17;;;;;;;27.25;8.50;;;;;;;2.83;87.02;101221.69;1682930;81;26138;-67
2021/04/16 06:07:47;;;;;;;49.08;8.98;;;;;;;2.89;87.07;101223.00;1684745;83;26537;-67
2021/04/16 06:10:19;;;;;;;;;;;;;;;2.91;87.02;101228.28;1704267;81;25883;-66
2021/04/16 06:12:48;;;;;;;63.00;9.68;;;;;;;2.94;87.07;101218.56;1686004;81;26976;-67
2021/04/16 06:15:23;;;;;;;26.23;6.72;;;;;;;2.91;87.02;101218.58;1703884;81;25872;-66
2021/04/16 06:17:51;;;;;;;21.97;6.37;;;;;;;2.93;87.02;101227.39;1708642;81;26341;-66
2021/04/16 06:20:24;;;;;;;16.23;8.38;;;;;;;2.96;86.95;101226.95;1681810;81;26528;-66
2021/04/16 06:22:55;;;;;;;23.87;7.28;;;;;;;2.99;86.97;101228.27;1692400;81;25617;-66
2021/04/16 06:25:31;;;;;;;31.20;8.90;;;;;;;3.03;86.99;101226.92;1707369;81;27373;-66
2021/04/16 06:28:05;;;;;;;29.85;7.10;;;;;;;3.02;86.93;101225.61;1668218;83;25863;-66
2021/04/16 06:30:33;;;;;;;35.90;8.13;;;;;;;3.03;86.92;101222.08;1678231;82;25779;-67
2021/04/16 06:33:09;;;;;;;26.10;6.50;;;;;;;3.08;86.93;101221.61;1672196;83;26444;-66
2021/04/16 06:35:38;;;;;;;22.50;7.42;;;;;;;3.08;86.88;101216.31;1672814;84;25981;-66
2021/04/16 06:38:06;;;;;;;18.80;7.33;;;;;;;3.11;86.95;101225.58;1659221;82;27428;-67
2021/04/16 06:40:36;;;;;;;33.05;11.15;;;;;;;3.08;86.91;101220.29;1664062;84;26445;-66
2021/04/16 06:43:06;;;;;;;35.70;8.93;;;;;;;3.08;86.88;101224.27;1686757;83;25778;-68
2021/04/16 06:45:34;;;;;;;36.15;8.63;;;;;;;3.10;86.86;101226.02;1681839;83;25935;-67
2021/04/16 06:48:06;;;;;;;27.32;8.55;;;;;;;3.11;86.85;101223.81;1666246;82;25804;-67
2021/04/16 06:50:42;;;;;;;18.42;7.12;;;;;;;3.14;86.81;101229.09;1693006;83;28603;-66
2021/04/16 06:53:32;;;;;;;22.35;7.80;;;;;;;3.16;86.78;101218.49;1692448;81;25853;-67
2021/04/16 06:56:05;;;;;;;20.95;7.40;;;;;;;3.21;86.80;101229.95;1696803;82;25948;-68
2021/04/16 06:58:53;;;;;;;16.40;7.03;;;;;;;3.24;86.71;101219.34;1669075;83;26075;-67
2021/04/16 07:01:32;;;;;;;24.12;7.78;;;;;;;3.26;86.73;101230.81;1693770;81;25879;-69
2021/04/16 07:04:09;;;;;;;14.75;7.12;;;;;;;3.27;86.71;101225.95;1672217;82;28038;-68
2021/04/16 07:06:40;;;;;;;17.85;7.35;;;;;;;3.28;86.66;101229.48;1680049;81;26253;-69
2021/04/16 07:09:19;;;;;;;23.60;6.78;;;;;;;3.30;86.70;101221.97;1676847;81;25763;-68
2021/04/16 07:12:21;;;;;;;16.80;7.58;;;;;;;3.34;86.67;101217.09;1673478;83;25754;-70
2021/04/16 07:14:59;;;;;;;29.67;8.00;;;;;;;3.40;86.58;101226.34;1674796;83;26542;-71
2021/04/16 07:17:35;;;;;;;16.80;6.58;;;;;;;3.44;86.57;101227.20;1674249;81;27667;-69
2021/04/16 07:20:06;;;;;;;13.08;6.20;;;;;;;3.47;86.52;101228.07;1676306;82;25842;-69
2021/04/16 07:22:45;;;;;;;21.68;6.78;;;;;;;3.53;86.54;101234.66;1686078;82;25848;-69
2021/04/16 07:25:36;;;;;;;18.23;6.42;;;;;;;3.53;86.42;101233.34;1690154;81;26210;-73
2021/04/16 07:28:16;;;;;;;17.77;6.15;;;;;;;3.56;86.41;101225.81;1671425;83;25770;-71
2021/04/16 07:30:50;;;;;;;22.05;6.83;;;;;;;3.59;86.44;101228.00;1672682;82;25900;-71
2021/04/16 07:33:38;;;;;;;18.12;5.75;;;;;;;3.65;86.44;101230.19;1685967;82;25880;-71
2021/04/16 07:36:40;;;;;;;20.15;6.45;;;;;;;3.68;86.43;101223.09;1711042;81;25871;-70
2021/04/16 07:39:17;;;;;;;18.17;6.00;;;;;;;3.65;86.29;101236.37;1706452;81;26192;-71
2021/04/16 07:41:50;;;;;;;12.90;5.60;;;;;;;3.68;86.34;101242.09;1688457;83;25929;-71
2021/04/16 07:44:37;;;;;;;9.45;4.20;;;;;;;3.67;86.29;101228.41;1691694;82;28424;-69
2021/04/16 07:47:25;;;;;;;17.23;6.08;;;;;;;3.68;86.29;101232.81;1700897;81;25985;-71
2021/04/16 07:50:06;;;;;;;21.20;6.75;;;;;;;3.68;86.16;101239.45;1695643;82;25803;-67
2021/04/16 07:52:44;;;;;;;18.60;6.40;;;;;;;3.71;86.14;101240.75;1683503;82;25987;-69
2021/04/16 07:55:34;;;;;;;12.53;4.25;;;;;;;3.77;86.15;101240.72;1691710;82;25958;-68
2021/04/16 07:58:19;;;;;;;13.60;5.47;;;;;;;3.77;86.06;101248.23;1690210;82;25874;-69
2021/04/16 08:00:49;;;;;;;18.42;5.28;;;;;;;3.71;85.92;101234.13;1681505;83;25944;-66
2021/04/16 08:03:21;;;;;;;10.27;5.13;;;;;;;3.71;85.92;101244.28;1703811;81;26215;-68
2021/04/16 08:05:57;;;;;;;10.58;4.97;;;;;;;3.75;85.91;101238.08;1690742;82;25967;-69
2021/04/16 08:08:30;;;;;;;12.43;4.45;;;;;;;3.79;85.92;101241.14;1702716;81;26441;-66
2021/04/16 08:11:09;;;;;;;10.00;4.90;;;;;;;3.80;85.80;101240.70;1674630;84;27940;-66
2021/04/16 08:13:50;;;;;;;18.75;5.37;;;;;;;3.78;85.77;101231.88;1707455;81;26500;-67
2021/04/16 08:16:37;;;;;;;16.67;5.53;;;;;;;3.77;85.77;101234.09;1703324;81;25893;-65
2021/04/16 08:19:37;;;;;;;13.93;6.28;;;;;;;3.76;85.74;101244.26;1702093;81;26633;-69
2021/04/16 08:22:13;;;;;;;19.95;6.25;;;;;;;3.78;85.75;101246.01;1697123;81;25763;-67
2021/04/16 08:25:08;;;;;;;18.65;6.15;;;;;;;3.81;85.75;101247.31;1700739;81;27564;-67
2021/04/16 08:27:43;;;;;;;10.90;5.15;;;;;;;3.85;85.76;101250.83;1683673;81;25875;-67
2021/04/16 08:30:28;;;;;;;18.60;6.55;;;;;;;3.85;85.74;101262.77;1704556;81;26615;-68
2021/04/16 08:33:02;;;;;;;13.98;5.35;;;;;;;3.77;85.65;101260.60;1719038;81;25796;-67
2021/04/16 08:35:41;;;;;;;13.58;5.75;;;;;;;3.75;85.69;101265.03;1693614;81;27970;-67
2021/04/16 08:38:15;;;;;;;11.25;5.10;;;;;;;3.71;85.59;101268.14;1722644;81;27804;-66
2021/04/16 08:40:52;;;;;;;11.75;4.97;;;;;;;3.66;85.59;101269.06;1689032;81;25896;-66
2021/04/16 08:43:43;;;;;;;13.95;5.15;;;;;;;3.65;85.56;101268.17;1684351;82;25865;-67
2021/04/16 08:46:36;;;;;;;12.00;4.10;;;;;;;3.65;85.51;101268.63;1680804;82;25909;-65
2021/04/16 08:49:12;;;;;;;13.18;4.78;;;;;;;3.62;85.50;101277.47;1682680;82;25955;-67
2021/04/16 08:51:54;;;;;;;10.28;4.62;;;;;;;3.59;85.43;101267.77;1690606;81;27890;-66
2021/04/16 08:54:31;;;;;;;6.53;3.77;;;;;;;3.61;85.47;101269.52;1683479;81;25979;-66
2021/04/16 08:57:18;;;;;;;7.72;3.52;;;;;;;3.62;85.38;101272.61;1687411;81;26072;-66
2021/04/16 09:00:07;;;;;;;10.98;3.95;;;;;;;3.59;85.35;101278.37;1688692;81;26251;-69
2021/04/16 09:02:49;;;;;;;11.25;4.67;;;;;;;3.55;85.27;101275.30;1684824;82;25896;-66
2021/04/16 09:05:27;;;;;;;12.07;4.80;;;;;;;3.55;85.32;101271.77;1676734;82;27614;-66
2021/04/16 09:08:12;;;;;;;11.03;4.65;;;;;;;3.57;85.31;101266.01;1678491;82;26093;-67
2021/04/16 09:10:50;;;;;;;7.92;4.97;;;;;;;3.58;85.26;101273.08;1682915;82;26545;-64
2021/04/16 09:13:42;;;;;;;11.25;4.37;;;;;;;3.58;85.29;101267.77;1698485;82;26349;-65
2021/04/16 09:16:21;;;;;;;10.53;4.60;;;;;;;3.60;85.32;101263.34;1712063;81;25861;-69
2021/04/16 09:18:53;;;;;;;9.10;4.15;;;;;;;3.65;85.33;101262.88;1699228;82;28512;-68
2021/04/16 09:21:34;;;;;;;12.30;3.98;;;;;;;3.65;85.17;101279.22;1669640;82;25824;-68
2021/04/16 09:24:08;;;;;;;9.70;4.15;;;;;;;3.58;85.11;101275.28;1688388;81;25915;-66
2021/04/16 09:26:51;;;;;;;10.88;4.35;;;;;;;3.55;85.12;101273.97;1685464;83;25876;-66
2021/04/16 09:29:36;;;;;;;8.25;4.08;;;;;;;3.53;85.07;101273.09;1678651;82;25848;-66
2021/04/16 09:32:28;;;;;;;11.60;4.25;;;;;;;3.56;85.13;101273.52;1657470;84;28456;-65
2021/04/16 09:34:56;;;;;;;10.32;5.22;;;;;;;3.56;85.00;101277.05;1693129;82;25895;-70
2021/04/16 09:37:34;;;;;;;13.28;6.28;;;;;;;3.57;85.09;101281.47;1698049;81;25837;-66
2021/04/16 09:40:16;;;;;;;16.50;6.42;;;;;;;3.63;85.05;101262.45;1686381;83;26171;-69
2021/04/16 09:42:55;;;;;;;10.82;5.83;;;;;;;3.64;85.06;101264.20;1717147;81;26420;-70
2021/04/16 09:45:49;;;;;;;11.63;5.30;;;;;;;3.70;85.07;101270.80;1666037;82;27900;-67
2021/04/16 09:48:31;;;;;;;7.85;4.67;;;;;;;3.69;85.05;101267.72;1668626;83;25902;-67
2021/04/16 09:51:04;;;;;;;15.95;5.37;;;;;;;3.77;85.11;101267.23;1663433;83;25911;-66
2021/04/16 09:53:37;;;;;;;9.28;5.35;;;;;;;3.75;84.96;101269.01;1665384;84;26275;-68
2021/04/16 09:56:34;;;;;;;11.03;4.85;;;;;;;3.70;85.00;101279.64;1698588;81;25897;-66
2021/04/16 09:59:27;;;;;;;11.90;5.33;;;;;;;3.65;84.94;101262.88;1710494;81;25820;-68
2021/04/16 10:02:18;;;;;;;15.20;4.95;;;;;;;3.63;84.96;101251.40;1701941;81;26513;-69
2021/04/16 10:05:13;;;;;;;12.47;4.80;;;;;;;3.69;85.03;101258.44;1702359;81;25774;-69
2021/04/16 10:07:58;;;;;;;12.75;5.47;;;;;;;3.73;85.02;101250.91;1689435;82;26196;-68
2021/04/16 10:10:40;;;;;;;10.40;4.50;;;;;;;3.74;84.93;101258.84;1704392;82;25878;-67
2021/04/16 10:13:22;;;;;;;12.55;5.50;;;;;;;3.79;84.90;101262.80;1712056;81;28395;-67
2021/04/16 10:15:58;;;;;;;10.55;4.90;;;;;;;3.78;84.84;101257.94;1692300;82;26041;-70
2021/04/16 10:18:38;;;;;;;12.10;5.40;;;;;;;3.81;84.79;101250.41;1695864;82;25917;-68
2021/04/16 10:21:21;;;;;;;11.70;5.25;;;;;;;3.89;84.88;101248.59;1700510;82;26031;-67
2021/04/16 10:28:07;;;;;;;28.02;6.45;;;;;;;4.00;84.83;101256.03;1710517;82;27893;-67
2021/04/16 10:33:25;;;;;;;16.40;5.67;;;;;;;4.05;84.81;101251.58;1672642;82;25908;-67
2021/04/16 10:48:38;;;;;;;22.20;6.65;;;;;;;4.20;84.72;101242.19;1697627;82;26696;-65
2021/04/16 10:57:00;;;;;;;16.30;6.28;;;;;;;4.27;84.40;101241.69;1672826;83;27687;-66
2021/04/16 11:29:22;;;;;;;15.95;4.97;;;;;;;3.90;84.16;101243.73;1651008;82;26129;-66
2021/04/16 12:38:54;;;;;;;17.48;7.47;;;;;;;4.33;84.42;101226.16;1672931;84;26654;-67
2021/04/16 12:41:30;;;;;;;13.00;6.12;;;;;;;4.32;84.42;101229.27;1701686;82;25885;-67
2021/04/16 12:43:59;;;;;;;22.52;7.47;;;;;;;4.33;84.44;101229.70;1706155;82;26900;-67
2021/04/16 12:46:32;;;;;;;13.70;6.42;;;;;;;4.33;84.44;101221.73;1711777;82;25817;-67
2021/04/16 12:49:04;;;;;;;20.05;8.63;;;;;;;4.36;84.47;101218.17;1712852;81;27947;-67
2021/04/16 12:51:32;;;;;;;21.65;8.18;;;;;;;4.36;84.46;101219.50;1674700;83;25907;-67
2021/04/16 12:54:00;;;;;;;25.88;9.48;;;;;;;4.38;84.53;101219.05;1708841;82;26512;-67
2021/04/16 12:56:36;;;;;;;25.77;8.70;;;;;;;4.43;84.54;101216.78;1688671;84;26269;-67
2021/04/16 12:59:12;;;;;;;18.90;7.60;;;;;;;4.47;84.53;101231.78;1699461;82;25760;-64
2021/04/16 13:01:44;;;;;;;19.57;6.75;;;;;;;4.50;84.53;101210.97;1651742;85;28542;-68
2021/04/16 13:04:15;;;;;;;21.05;7.12;;;;;;;4.52;84.52;101218.47;1647240;85;26588;-67
2021/04/16 13:06:45;;;;;;;19.23;7.53;;;;;;;4.51;84.61;101214.94;1652709;85;25847;-66
2021/04/16 13:09:18;;;;;;;26.43;7.90;;;;;;;4.53;84.63;101211.81;1648387;83;26137;-66
2021/04/16 13:11:51;;;;;;;17.20;6.25;;;;;;;4.55;84.64;101213.13;1670956;84;25922;-67
2021/04/16 13:14:21;;;;;;;19.52;6.35;;;;;;;4.58;84.66;101206.47;1675460;83;25951;-67
2021/04/16 13:16:50;;;;;;;17.50;6.45;;;;;;;4.57;84.65;101212.67;1678342;83;25861;-67
2021/04/16 13:19:34;;;;;;;17.57;6.53;;;;;;;4.55;84.64;101210.48;1647383;85;25898;-67
2021/04/16 13:22:13;;;;;;;19.90;6.83;;;;;;;4.56;84.65;101198.96;1652458;84;26901;-66
2021/04/16 13:24:43;;;;;;;18.02;6.92;;;;;;;4.59;84.66;101197.60;1657441;85;25807;-66
2021/04/16 13:27:18;;;;;;;;;;;;;;;4.62;84.66;101196.69;1669085;83;28024;-66
2021/04/16 13:29:46;;;;;;;14.98;5.92;;;;;;;4.64;84.63;101198.44;1629577;85;26236;-66
2021/04/16 13:32:21;;;;;;;22.15;6.85;;;;;;;4.62;84.70;101197.58;1652455;83;26004;-66
2021/04/16 13:34:53;;;;;;;21.48;8.28;;;;;;;4.64;84.68;101198.44;1645308;84;26457;-67
2021/04/16 13:37:22;;;;;;;18.30;7.67;;;;;;;4.67;84.68;101199.73;1662541;83;25872;-68
2021/04/16 13:39:51;;;;;;;14.63;6.60;;;;;;;4.71;84.69;101190.84;1661435;84;26484;-68
2021/04/16 13:42:20;;;;;;;19.70;8.25;;;;;;;4.73;84.66;101185.06;1659258;83;25862;-67
2021/04/16 13:44:48;;;;;;;19.85;7.35;;;;;;;4.75;84.68;101185.92;1654742;85;25783;-67
2021/04/16 13:47:24;;;;;;;17.70;7.22;;;;;;;4.79;84.70;101191.64;1651317;85;26589;-66
2021/04/16 13:49:55;;;;;;;20.75;7.22;;;;;;;4.82;84.74;101178.77;1671018;85;25813;-68
2021/04/16 13:52:25;;;;;;;29.65;8.03;;;;;;;4.84;84.73;101174.32;1669910;83;27687;-67
2021/04/16 13:54:53;;;;;;;16.55;7.47;;;;;;;4.86;84.75;101173.86;1655939;83;26799;-67
2021/04/16 13:57:21;;;;;;;18.30;6.85;;;;;;;4.91;84.78;101172.47;1663316;83;25907;-65
2021/04/16 13:59:49;;;;;;;18.32;6.90;;;;;;;4.96;84.76;101170.64;1677500;82;25859;-66